sensor_id;sensor_type;location;lat;lon;timestamp;temperature;humidity
5802;DHT22;2927;49.366;8.530;2023-03-01T00:01:16;0.50;1.00
5802;DHT22;2927;49.366;8.530;2023-03-01T00:03:42;0.50;1.00
5802;DHT22;2927;49.366;8.530;2023-03-01T00:06:08;0.50;1.00
5802;DHT22;2927;49.366;8.530;2023-03-01T00:08:34;0.40;1.00
5802;DHT22;2927;49.366;8.530;2023-03-01T00:11:26;0.40;1.00
5802;DHT22;2927;49.366;8.530;2023-03-01T00:13:53;0.40;1.00
5802;DHT22;2927;49.366;8.530;2023-03-01T00:16:28;0.30;1.00
5802;DHT22;2927;49.366;8.530;2023-03-01T00:18:54;0.40;1.00
5802;DHT22;2927;49.366;8.530;2023-03-01T00:21:21;0.30;1.00
5802;DHT22;2927;49.366;8.530;2023-03-01T00:23:50;0.40;1.00
5802;DHT22;2927;49.366;8.530;2023-03-01T00:26:17;0.40;1.00
5802;DHT22;2927;49.366;8.530;2023-03-01T00:28:43;0.30;1.00
5802;DHT22;2927;49.366;8.530;2023-03-01T00:31:13;0.30;1.00
5802;DHT22;2927;49.366;8.530;2023-03-01T00:33:39;0.30;1.00
5802;DHT22;2927;49.366;8.530;2023-03-01T00:36:05;0.30;1.00
5802;DHT22;2927;49.366;8.530;2023-03-01T00:38:34;0.30;1.00
5802;DHT22;2927;49.366;8.530;2023-03-01T00:41:08;0.30;1.00
5802;DHT22;2927;49.366;8.530;2023-03-01T00:43:34;0.30;1.00
5802;DHT22;2927;49.366;8.530;2023-03-01T00:46:06;0.30;1.00
5802;DHT22;2927;49.366;8.530;2023-03-01T00:48:32;0.30;1.00
5802;DHT22;2927;49.366;8.530;2023-03-01T00:51:14;0.30;1.00
5802;DHT22;2927;49.366;8.530;2023-03-01T00:53:40;0.20;1.00
5802;DHT22;2927;49.366;8.530;2023-03-01T00:56:06;0.20;1.00
5802;DHT22;2927;49.366;8.530;2023-03-01T00:58:33;0.20;1.00
5802;DHT22;2927;49.366;8.530;2023-03-01T01:00:59;0.20;25.40
5802;DHT22;2927;49.366;8.530;2023-03-01T01:03:25;0.20;61.40
5802;DHT22;2927;49.366;8.530;2023-03-01T01:05:52;0.20;25.10
5802;DHT22;2927;49.366;8.530;2023-03-01T01:08:18;0.20;73.30
5802;DHT22;2927;49.366;8.530;2023-03-01T01:10:45;0.20;99.90
5802;DHT22;2927;49.366;8.530;2023-03-01T01:13:11;0.20;96.80
5802;DHT22;2927;49.366;8.530;2023-03-01T01:15:36;0.20;99.90
5802;DHT22;2927;49.366;8.530;2023-03-01T01:18:02;0.20;99.90
5802;DHT22;2927;49.366;8.530;2023-03-01T01:20:28;0.10;99.90
5802;DHT22;2927;49.366;8.530;2023-03-01T01:22:54;0.10;99.90
5802;DHT22;2927;49.366;8.530;2023-03-01T01:25:19;0.10;99.90
5802;DHT22;2927;49.366;8.530;2023-03-01T01:27:45;0.00;99.90
5802;DHT22;2927;49.366;8.530;2023-03-01T01:30:11;-0.10;99.90
5802;DHT22;2927;49.366;8.530;2023-03-01T01:32:37;-0.10;1.00
5802;DHT22;2927;49.366;8.530;2023-03-01T01:35:02;-0.20;1.00
5802;DHT22;2927;49.366;8.530;2023-03-01T01:37:28;-0.20;1.00
5802;DHT22;2927;49.366;8.530;2023-03-01T01:40:00;-0.20;1.00
5802;DHT22;2927;49.366;8.530;2023-03-01T01:42:26;-0.30;1.00
5802;DHT22;2927;49.366;8.530;2023-03-01T01:47:59;-0.20;1.00
5802;DHT22;2927;49.366;8.530;2023-03-01T01:50:25;-0.30;1.00
5802;DHT22;2927;49.366;8.530;2023-03-01T01:52:52;-0.30;1.00
5802;DHT22;2927;49.366;8.530;2023-03-01T01:55:22;-0.20;1.00
5802;DHT22;2927;49.366;8.530;2023-03-01T01:57:54;-0.10;1.00
5802;DHT22;2927;49.366;8.530;2023-03-01T02:00:24;0.00;1.00
5802;DHT22;2927;49.366;8.530;2023-03-01T02:02:54;0.00;1.00
5802;DHT22;2927;49.366;8.530;2023-03-01T02:06:32;0.00;1.00
5802;DHT22;2927;49.366;8.530;2023-03-01T02:08:28;0.00;1.00
5802;DHT22;2927;49.366;8.530;2023-03-01T02:10:56;0.00;1.00
5802;DHT22;2927;49.366;8.530;2023-03-01T02:13:22;0.00;1.00
5802;DHT22;2927;49.366;8.530;2023-03-01T02:15:48;0.00;1.00
5802;DHT22;2927;49.366;8.530;2023-03-01T02:18:17;-0.10;1.00
5802;DHT22;2927;49.366;8.530;2023-03-01T02:23:34;-0.10;1.00
5802;DHT22;2927;49.366;8.530;2023-03-01T02:26:29;-0.10;1.00
5802;DHT22;2927;49.366;8.530;2023-03-01T02:28:59;-0.10;1.00
5802;DHT22;2927;49.366;8.530;2023-03-01T02:31:24;-0.20;1.00
5802;DHT22;2927;49.366;8.530;2023-03-01T02:34:12;-0.20;1.00
5802;DHT22;2927;49.366;8.530;2023-03-01T02:36:52;-0.20;1.00
5802;DHT22;2927;49.366;8.530;2023-03-01T02:39:23;-0.20;1.00
5802;DHT22;2927;49.366;8.530;2023-03-01T02:41:53;-0.20;1.00
5802;DHT22;2927;49.366;8.530;2023-03-01T02:44:20;-0.30;1.00
5802;DHT22;2927;49.366;8.530;2023-03-01T02:46:52;-0.40;1.00
5802;DHT22;2927;49.366;8.530;2023-03-01T02:49:25;-0.40;99.90
5802;DHT22;2927;49.366;8.530;2023-03-01T02:54:56;-0.60;1.00
5802;DHT22;2927;49.366;8.530;2023-03-01T02:57:25;-0.70;1.00
5802;DHT22;2927;49.366;8.530;2023-03-01T02:59:54;-0.60;1.00
5802;DHT22;2927;49.366;8.530;2023-03-01T03:02:29;-0.60;1.00
5802;DHT22;2927;49.366;8.530;2023-03-01T03:05:16;-0.70;1.00
5802;DHT22;2927;49.366;8.530;2023-03-01T03:07:44;-0.60;99.90
5802;DHT22;2927;49.366;8.530;2023-03-01T03:10:17;-0.70;99.90
5802;DHT22;2927;49.366;8.530;2023-03-01T03:12:52;-0.70;99.90
5802;DHT22;2927;49.366;8.530;2023-03-01T03:15:18;-0.70;99.90
5802;DHT22;2927;49.366;8.530;2023-03-01T03:17:45;-0.70;1.00
5802;DHT22;2927;49.366;8.530;2023-03-01T03:20:12;-0.80;99.90
5802;DHT22;2927;49.366;8.530;2023-03-01T03:22:44;-0.80;1.00
5802;DHT22;2927;49.366;8.530;2023-03-01T03:25:10;-0.80;1.00
5802;DHT22;2927;49.366;8.530;2023-03-01T03:27:37;-0.80;99.90
5802;DHT22;2927;49.366;8.530;2023-03-01T03:30:05;-0.80;99.90
5802;DHT22;2927;49.366;8.530;2023-03-01T03:32:39;-0.80;1.00
5802;DHT22;2927;49.366;8.530;2023-03-01T03:35:07;-0.70;1.00
5802;DHT22;2927;49.366;8.530;2023-03-01T03:37:38;-0.70;1.00
5802;DHT22;2927;49.366;8.530;2023-03-01T03:40:22;-0.70;1.00
5802;DHT22;2927;49.366;8.530;2023-03-01T03:42:48;-0.70;1.00
5802;DHT22;2927;49.366;8.530;2023-03-01T03:45:15;-0.70;1.00
5802;DHT22;2927;49.366;8.530;2023-03-01T03:47:41;-0.70;1.00
5802;DHT22;2927;49.366;8.530;2023-03-01T03:50:07;-0.70;1.00
5802;DHT22;2927;49.366;8.530;2023-03-01T03:52:33;-0.70;99.90
5802;DHT22;2927;49.366;8.530;2023-03-01T03:54:58;-0.70;99.90
5802;DHT22;2927;49.366;8.530;2023-03-01T03:57:24;-0.70;99.90
5802;DHT22;2927;49.366;8.530;2023-03-01T03:59:49;-0.70;99.90
5802;DHT22;2927;49.366;8.530;2023-03-01T04:02:15;-0.70;99.90
5802;DHT22;2927;49.366;8.530;2023-03-01T04:04:50;-0.70;99.90
5802;DHT22;2927;49.366;8.530;2023-03-01T04:07:16;-0.70;1.00
5802;DHT22;2927;49.366;8.530;2023-03-01T04:09:42;-0.80;1.00
5802;DHT22;2927;49.366;8.530;2023-03-01T04:12:09;-0.80;1.00
5802;DHT22;2927;49.366;8.530;2023-03-01T04:14:35;-0.80;1.00
5802;DHT22;2927;49.366;8.530;2023-03-01T04:17:00;-0.80;1.00
5802;DHT22;2927;49.366;8.530;2023-03-01T04:19:26;-0.80;1.00
5802;DHT22;2927;49.366;8.530;2023-03-01T04:21:53;-0.90;99.90
5802;DHT22;2927;49.366;8.530;2023-03-01T04:24:18;-0.80;99.90
5802;DHT22;2927;49.366;8.530;2023-03-01T04:26:44;-0.80;99.90
5802;DHT22;2927;49.366;8.530;2023-03-01T04:29:09;-0.80;99.90
5802;DHT22;2927;49.366;8.530;2023-03-01T04:31:35;-0.80;1.00
5802;DHT22;2927;49.366;8.530;2023-03-01T04:34:00;-0.80;1.00
5802;DHT22;2927;49.366;8.530;2023-03-01T04:36:28;-0.70;1.00
5802;DHT22;2927;49.366;8.530;2023-03-01T04:38:55;-0.70;1.00
5802;DHT22;2927;49.366;8.530;2023-03-01T04:41:22;-0.70;1.00
5802;DHT22;2927;49.366;8.530;2023-03-01T04:43:49;-0.70;1.00
5802;DHT22;2927;49.366;8.530;2023-03-01T04:46:17;-0.70;1.00
5802;DHT22;2927;49.366;8.530;2023-03-01T04:48:45;-0.70;1.00
5802;DHT22;2927;49.366;8.530;2023-03-01T04:51:11;-0.70;99.90
5802;DHT22;2927;49.366;8.530;2023-03-01T04:53:39;-0.70;1.00
5802;DHT22;2927;49.366;8.530;2023-03-01T04:56:05;-0.80;1.00
5802;DHT22;2927;49.366;8.530;2023-03-01T04:58:31;-0.80;1.00
5802;DHT22;2927;49.366;8.530;2023-03-01T05:00:57;-0.90;6.40
5802;DHT22;2927;49.366;8.530;2023-03-01T05:03:23;-0.90;99.90
5802;DHT22;2927;49.366;8.530;2023-03-01T05:05:50;-0.90;99.90
5802;DHT22;2927;49.366;8.530;2023-03-01T05:08:16;-0.90;99.90
5802;DHT22;2927;49.366;8.530;2023-03-01T05:10:49;-0.90;99.90
5802;DHT22;2927;49.366;8.530;2023-03-01T05:13:16;-0.90;99.90
5802;DHT22;2927;49.366;8.530;2023-03-01T05:15:56;-0.90;1.00
5802;DHT22;2927;49.366;8.530;2023-03-01T05:18:23;-0.80;1.00
5802;DHT22;2927;49.366;8.530;2023-03-01T05:20:52;-0.80;1.00
5802;DHT22;2927;49.366;8.530;2023-03-01T05:23:17;-0.80;1.00
5802;DHT22;2927;49.366;8.530;2023-03-01T05:25:44;-0.80;1.00
5802;DHT22;2927;49.366;8.530;2023-03-01T05:28:12;-0.80;1.00
5802;DHT22;2927;49.366;8.530;2023-03-01T05:30:38;-0.80;1.00
5802;DHT22;2927;49.366;8.530;2023-03-01T05:33:07;-0.80;1.00
5802;DHT22;2927;49.366;8.530;2023-03-01T05:35:39;-0.90;1.00
5802;DHT22;2927;49.366;8.530;2023-03-01T05:38:04;-0.90;14.40
5802;DHT22;2927;49.366;8.530;2023-03-01T05:40:32;-0.90;32.90
5802;DHT22;2927;49.366;8.530;2023-03-01T05:42:58;-0.90;56.10
5802;DHT22;2927;49.366;8.530;2023-03-01T05:45:25;-0.90;1.00
5802;DHT22;2927;49.366;8.530;2023-03-01T05:47:52;-0.90;99.90
5802;DHT22;2927;49.366;8.530;2023-03-01T05:50:26;-1.00;1.00
5802;DHT22;2927;49.366;8.530;2023-03-01T05:52:59;-1.00;99.90
5802;DHT22;2927;49.366;8.530;2023-03-01T05:55:25;-0.90;99.90
5802;DHT22;2927;49.366;8.530;2023-03-01T05:57:50;-0.90;99.90
5802;DHT22;2927;49.366;8.530;2023-03-01T06:00:18;-0.90;99.90
5802;DHT22;2927;49.366;8.530;2023-03-01T06:02:44;-0.90;99.90
5802;DHT22;2927;49.366;8.530;2023-03-01T06:05:12;-0.90;1.00
5802;DHT22;2927;49.366;8.530;2023-03-01T06:07:38;-0.90;1.00
5802;DHT22;2927;49.366;8.530;2023-03-01T06:10:05;-0.80;1.00
5802;DHT22;2927;49.366;8.530;2023-03-01T06:12:32;-0.80;1.00
5802;DHT22;2927;49.366;8.530;2023-03-01T06:14:58;-0.70;1.00
5802;DHT22;2927;49.366;8.530;2023-03-01T06:17:24;-0.70;1.00
5802;DHT22;2927;49.366;8.530;2023-03-01T06:19:49;-0.80;1.00
5802;DHT22;2927;49.366;8.530;2023-03-01T06:22:15;-0.80;1.00
5802;DHT22;2927;49.366;8.530;2023-03-01T06:24:41;-0.80;1.00
5802;DHT22;2927;49.366;8.530;2023-03-01T06:27:06;-0.80;1.00
5802;DHT22;2927;49.366;8.530;2023-03-01T06:29:32;-0.70;1.00
5802;DHT22;2927;49.366;8.530;2023-03-01T06:31:57;-0.70;1.00
5802;DHT22;2927;49.366;8.530;2023-03-01T06:34:23;-0.70;1.00
5802;DHT22;2927;49.366;8.530;2023-03-01T06:36:48;-0.60;1.00
5802;DHT22;2927;49.366;8.530;2023-03-01T06:39:14;-0.50;99.90
5802;DHT22;2927;49.366;8.530;2023-03-01T06:41:39;-0.50;99.90
5802;DHT22;2927;49.366;8.530;2023-03-01T06:44:05;-0.50;1.00
5802;DHT22;2927;49.366;8.530;2023-03-01T06:46:31;-0.60;99.90
5802;DHT22;2927;49.366;8.530;2023-03-01T06:48:56;-0.60;99.90
5802;DHT22;2927;49.366;8.530;2023-03-01T06:51:22;-0.50;99.90
5802;DHT22;2927;49.366;8.530;2023-03-01T06:53:47;-0.50;99.90
5802;DHT22;2927;49.366;8.530;2023-03-01T06:56:13;-0.40;99.90
5802;DHT22;2927;49.366;8.530;2023-03-01T06:58:38;-0.40;99.90
5802;DHT22;2927;49.366;8.530;2023-03-01T07:01:08;-0.40;1.00
5802;DHT22;2927;49.366;8.530;2023-03-01T07:03:34;-0.30;1.00
5802;DHT22;2927;49.366;8.530;2023-03-01T07:05:59;-0.20;1.00
5802;DHT22;2927;49.366;8.530;2023-03-01T07:08:25;-0.20;99.90
5802;DHT22;2927;49.366;8.530;2023-03-01T07:10:58;-0.10;99.90
5802;DHT22;2927;49.366;8.530;2023-03-01T07:13:24;0.00;1.00
5802;DHT22;2927;49.366;8.530;2023-03-01T07:15:50;0.00;1.00
5802;DHT22;2927;49.366;8.530;2023-03-01T07:18:16;0.10;1.00
5802;DHT22;2927;49.366;8.530;2023-03-01T07:20:41;0.10;1.00
5802;DHT22;2927;49.366;8.530;2023-03-01T07:23:07;0.20;1.00
5802;DHT22;2927;49.366;8.530;2023-03-01T07:25:33;0.30;1.00
5802;DHT22;2927;49.366;8.530;2023-03-01T07:27:58;0.40;1.00
5802;DHT22;2927;49.366;8.530;2023-03-01T07:30:25;0.60;1.00
5802;DHT22;2927;49.366;8.530;2023-03-01T07:32:52;0.70;1.00
5802;DHT22;2927;49.366;8.530;2023-03-01T07:35:18;0.70;99.90
5802;DHT22;2927;49.366;8.530;2023-03-01T07:37:43;0.90;99.90
5802;DHT22;2927;49.366;8.530;2023-03-01T07:40:10;1.10;1.00
5802;DHT22;2927;49.366;8.530;2023-03-01T07:42:36;1.10;1.00
5802;DHT22;2927;49.366;8.530;2023-03-01T07:45:03;1.10;1.00
5802;DHT22;2927;49.366;8.530;2023-03-01T07:47:28;1.20;1.00
5802;DHT22;2927;49.366;8.530;2023-03-01T07:49:54;1.30;1.00
5802;DHT22;2927;49.366;8.530;2023-03-01T07:52:19;1.40;1.00
5802;DHT22;2927;49.366;8.530;2023-03-01T07:54:45;1.50;1.00
5802;DHT22;2927;49.366;8.530;2023-03-01T07:57:11;1.50;1.00
5802;DHT22;2927;49.366;8.530;2023-03-01T07:59:36;1.80;99.90
5802;DHT22;2927;49.366;8.530;2023-03-01T08:02:02;1.80;99.90
5802;DHT22;2927;49.366;8.530;2023-03-01T08:04:27;1.90;99.90
5802;DHT22;2927;49.366;8.530;2023-03-01T08:06:54;1.70;99.90
5802;DHT22;2927;49.366;8.530;2023-03-01T08:09:19;1.90;99.90
5802;DHT22;2927;49.366;8.530;2023-03-01T08:11:45;2.00;99.90
5802;DHT22;2927;49.366;8.530;2023-03-01T08:14:11;2.00;36.80
5802;DHT22;2927;49.366;8.530;2023-03-01T08:16:37;2.10;99.90
5802;DHT22;2927;49.366;8.530;2023-03-01T08:19:07;2.30;1.00
5802;DHT22;2927;49.366;8.530;2023-03-01T08:21:33;2.40;1.00
5802;DHT22;2927;49.366;8.530;2023-03-01T08:24:04;2.40;1.00
5802;DHT22;2927;49.366;8.530;2023-03-01T08:26:29;2.60;1.00
5802;DHT22;2927;49.366;8.530;2023-03-01T08:28:56;2.80;1.00
5802;DHT22;2927;49.366;8.530;2023-03-01T08:31:28;2.80;1.00
5802;DHT22;2927;49.366;8.530;2023-03-01T08:33:56;2.80;1.00
5802;DHT22;2927;49.366;8.530;2023-03-01T08:36:23;2.80;1.00
5802;DHT22;2927;49.366;8.530;2023-03-01T08:38:49;2.70;1.00
5802;DHT22;2927;49.366;8.530;2023-03-01T08:41:15;2.70;1.00
5802;DHT22;2927;49.366;8.530;2023-03-01T08:43:41;2.70;1.00
5802;DHT22;2927;49.366;8.530;2023-03-01T08:46:06;2.70;1.00
5802;DHT22;2927;49.366;8.530;2023-03-01T08:48:32;2.80;1.00
5802;DHT22;2927;49.366;8.530;2023-03-01T08:51:07;2.80;1.00
5802;DHT22;2927;49.366;8.530;2023-03-01T08:53:33;3.00;1.00
5802;DHT22;2927;49.366;8.530;2023-03-01T08:56:00;3.00;1.00
5802;DHT22;2927;49.366;8.530;2023-03-01T08:58:28;3.40;1.00
5802;DHT22;2927;49.366;8.530;2023-03-01T09:00:53;3.60;1.00
5802;DHT22;2927;49.366;8.530;2023-03-01T09:03:19;3.70;1.00
5802;DHT22;2927;49.366;8.530;2023-03-01T09:05:44;3.70;1.00
5802;DHT22;2927;49.366;8.530;2023-03-01T09:08:11;3.50;1.00
5802;DHT22;2927;49.366;8.530;2023-03-01T09:10:39;3.70;1.00
5802;DHT22;2927;49.366;8.530;2023-03-01T09:13:05;3.70;1.00
5802;DHT22;2927;49.366;8.530;2023-03-01T09:15:31;3.80;1.00
5802;DHT22;2927;49.366;8.530;2023-03-01T09:17:56;4.20;1.00
5802;DHT22;2927;49.366;8.530;2023-03-01T09:20:22;4.40;1.00
5802;DHT22;2927;49.366;8.530;2023-03-01T09:22:47;4.10;1.00
5802;DHT22;2927;49.366;8.530;2023-03-01T09:25:13;4.30;1.00
5802;DHT22;2927;49.366;8.530;2023-03-01T09:27:38;4.50;1.00
5802;DHT22;2927;49.366;8.530;2023-03-01T09:30:05;4.70;1.00
5802;DHT22;2927;49.366;8.530;2023-03-01T09:32:31;4.60;99.90
5802;DHT22;2927;49.366;8.530;2023-03-01T09:34:56;4.40;99.90
5802;DHT22;2927;49.366;8.530;2023-03-01T09:37:32;4.50;99.90
5802;DHT22;2927;49.366;8.530;2023-03-01T09:39:58;5.00;99.90
5802;DHT22;2927;49.366;8.530;2023-03-01T09:42:24;5.20;99.90
5802;DHT22;2927;49.366;8.530;2023-03-01T09:45:35;5.20;99.90
5802;DHT22;2927;49.366;8.530;2023-03-01T09:48:03;5.10;99.90
5802;DHT22;2927;49.366;8.530;2023-03-01T09:50:36;4.70;99.90
5802;DHT22;2927;49.366;8.530;2023-03-01T09:53:22;4.90;99.90
5802;DHT22;2927;49.366;8.530;2023-03-01T09:55:54;5.20;99.90
5802;DHT22;2927;49.366;8.530;2023-03-01T10:01:33;4.80;99.90
5802;DHT22;2927;49.366;8.530;2023-03-01T10:06:36;5.10;99.90
5802;DHT22;2927;49.366;8.530;2023-03-01T10:09:11;5.20;99.90
5802;DHT22;2927;49.366;8.530;2023-03-01T10:11:40;5.10;99.90
5802;DHT22;2927;49.366;8.530;2023-03-01T10:17:08;5.10;99.90
5802;DHT22;2927;49.366;8.530;2023-03-01T10:19:43;4.90;99.90
5802;DHT22;2927;49.366;8.530;2023-03-01T10:22:21;4.80;99.90
5802;DHT22;2927;49.366;8.530;2023-03-01T10:24:50;5.00;99.90
5802;DHT22;2927;49.366;8.530;2023-03-01T10:27:23;5.20;99.90
5802;DHT22;2927;49.366;8.530;2023-03-01T10:32:28;5.10;99.90
5802;DHT22;2927;49.366;8.530;2023-03-01T10:34:53;5.00;99.90
5802;DHT22;2927;49.366;8.530;2023-03-01T10:37:21;4.80;99.90
5802;DHT22;2927;49.366;8.530;2023-03-01T10:40:08;4.80;99.90
5802;DHT22;2927;49.366;8.530;2023-03-01T10:42:38;5.00;99.90
5802;DHT22;2927;49.366;8.530;2023-03-01T10:48:19;5.00;99.90
5802;DHT22;2927;49.366;8.530;2023-03-01T10:50:51;5.10;99.90
5802;DHT22;2927;49.366;8.530;2023-03-01T10:53:41;5.50;99.90
5802;DHT22;2927;49.366;8.530;2023-03-01T10:56:13;5.80;99.90
5802;DHT22;2927;49.366;8.530;2023-03-01T10:58:41;5.60;99.90
5802;DHT22;2927;49.366;8.530;2023-03-01T11:06:33;5.70;99.90
5802;DHT22;2927;49.366;8.530;2023-03-01T11:09:21;5.80;99.90
5802;DHT22;2927;49.366;8.530;2023-03-01T11:11:55;5.90;99.90
5802;DHT22;2927;49.366;8.530;2023-03-01T11:15:05;5.60;99.90
5802;DHT22;2927;49.366;8.530;2023-03-01T11:17:17;5.60;99.90
5802;DHT22;2927;49.366;8.530;2023-03-01T11:20:00;5.60;99.90
5802;DHT22;2927;49.366;8.530;2023-03-01T11:22:26;5.90;99.90
5802;DHT22;2927;49.366;8.530;2023-03-01T11:24:54;5.50;99.90
5802;DHT22;2927;49.366;8.530;2023-03-01T11:27:24;5.70;99.90
5802;DHT22;2927;49.366;8.530;2023-03-01T11:35:42;6.00;99.90
5802;DHT22;2927;49.366;8.530;2023-03-01T11:38:18;6.10;99.90
5802;DHT22;2927;49.366;8.530;2023-03-01T11:43:26;6.20;99.90
5802;DHT22;2927;49.366;8.530;2023-03-01T11:51:18;6.50;99.90
5802;DHT22;2927;49.366;8.530;2023-03-01T11:56:41;6.50;99.90
5802;DHT22;2927;49.366;8.530;2023-03-01T12:07:23;6.80;99.90
5802;DHT22;2927;49.366;8.530;2023-03-01T12:12:45;7.00;99.90
5802;DHT22;2927;49.366;8.530;2023-03-01T12:21:19;6.60;99.90
5802;DHT22;2927;49.366;8.530;2023-03-01T12:30:02;6.90;99.90
5802;DHT22;2927;49.366;8.530;2023-03-01T12:32:47;6.80;99.90
5802;DHT22;2927;49.366;8.530;2023-03-01T12:36:19;6.90;99.90
5802;DHT22;2927;49.366;8.530;2023-03-01T12:38:32;7.00;99.90
5802;DHT22;2927;49.366;8.530;2023-03-01T12:44:31;7.20;99.90
5802;DHT22;2927;49.366;8.530;2023-03-01T12:49:41;7.30;99.90
5802;DHT22;2927;49.366;8.530;2023-03-01T12:54:50;7.20;99.90
5802;DHT22;2927;49.366;8.530;2023-03-01T12:57:34;7.40;99.90
5802;DHT22;2927;49.366;8.530;2023-03-01T13:06:21;7.40;99.90
5802;DHT22;2927;49.366;8.530;2023-03-01T13:09:23;7.40;99.90
5802;DHT22;2927;49.366;8.530;2023-03-01T13:11:42;7.30;99.90
5802;DHT22;2927;49.366;8.530;2023-03-01T13:16:47;7.60;99.90
5802;DHT22;2927;49.366;8.530;2023-03-01T13:19:21;7.60;99.90
5802;DHT22;2927;49.366;8.530;2023-03-01T13:21:49;7.60;99.90
5802;DHT22;2927;49.366;8.530;2023-03-01T13:24:41;7.60;99.90
5802;DHT22;2927;49.366;8.530;2023-03-01T13:29:46;7.70;99.90
5802;DHT22;2927;49.366;8.530;2023-03-01T13:32:29;7.90;99.90
5802;DHT22;2927;49.366;8.530;2023-03-01T13:34:59;8.00;99.90
5802;DHT22;2927;49.366;8.530;2023-03-01T13:37:27;8.10;99.90
5802;DHT22;2927;49.366;8.530;2023-03-01T13:39:56;7.90;99.90
5802;DHT22;2927;49.366;8.530;2023-03-01T13:43:11;8.00;99.90
5802;DHT22;2927;49.366;8.530;2023-03-01T13:47:57;7.90;99.90
5802;DHT22;2927;49.366;8.530;2023-03-01T13:50:26;8.10;99.90
5802;DHT22;2927;49.366;8.530;2023-03-01T13:52:59;8.00;99.90
5802;DHT22;2927;49.366;8.530;2023-03-01T13:55:41;8.10;99.90
5802;DHT22;2927;49.366;8.530;2023-03-01T13:58:23;8.20;99.90
5802;DHT22;2927;49.366;8.530;2023-03-01T14:03:25;8.30;99.90
5802;DHT22;2927;49.366;8.530;2023-03-01T14:06:12;8.30;99.90
5802;DHT22;2927;49.366;8.530;2023-03-01T14:08:38;8.20;99.90
5802;DHT22;2927;49.366;8.530;2023-03-01T14:19:25;8.30;99.90
5802;DHT22;2927;49.366;8.530;2023-03-01T14:24:40;8.40;99.90
5802;DHT22;2927;49.366;8.530;2023-03-01T14:27:11;8.30;99.90
5802;DHT22;2927;49.366;8.530;2023-03-01T14:29:39;8.50;99.90
5802;DHT22;2927;49.366;8.530;2023-03-01T14:32:09;8.60;99.90
5802;DHT22;2927;49.366;8.530;2023-03-01T14:34:35;8.50;99.90
5802;DHT22;2927;49.366;8.530;2023-03-01T14:37:24;8.40;99.90
5802;DHT22;2927;49.366;8.530;2023-03-01T14:39:50;8.40;99.90
5802;DHT22;2927;49.366;8.530;2023-03-01T14:42:18;8.30;99.90
5802;DHT22;2927;49.366;8.530;2023-03-01T14:44:47;8.40;99.90
5802;DHT22;2927;49.366;8.530;2023-03-01T14:49:53;8.50;99.90
5802;DHT22;2927;49.366;8.530;2023-03-01T14:52:31;8.50;99.90
5802;DHT22;2927;49.366;8.530;2023-03-01T14:55:03;8.50;99.90
5802;DHT22;2927;49.366;8.530;2023-03-01T14:57:29;8.60;99.90
5802;DHT22;2927;49.366;8.530;2023-03-01T14:59:58;8.60;99.90
5802;DHT22;2927;49.366;8.530;2023-03-01T15:02:26;8.50;99.90
5802;DHT22;2927;49.366;8.530;2023-03-01T15:04:56;8.60;99.90
5802;DHT22;2927;49.366;8.530;2023-03-01T15:07:29;8.70;99.90
5802;DHT22;2927;49.366;8.530;2023-03-01T15:09:58;8.70;99.90
5802;DHT22;2927;49.366;8.530;2023-03-01T15:12:40;8.60;99.90
5802;DHT22;2927;49.366;8.530;2023-03-01T15:18:00;8.60;99.90
5802;DHT22;2927;49.366;8.530;2023-03-01T15:20:29;8.50;99.90
5802;DHT22;2927;49.366;8.530;2023-03-01T15:22:56;8.50;99.90
5802;DHT22;2927;49.366;8.530;2023-03-01T15:25:27;8.60;99.90
5802;DHT22;2927;49.366;8.530;2023-03-01T15:27:55;8.50;99.90
5802;DHT22;2927;49.366;8.530;2023-03-01T15:30:25;8.60;99.90
5802;DHT22;2927;49.366;8.530;2023-03-01T15:33:15;8.60;99.90
5802;DHT22;2927;49.366;8.530;2023-03-01T15:35:47;8.70;99.90
5802;DHT22;2927;49.366;8.530;2023-03-01T15:40:51;8.60;99.90
5802;DHT22;2927;49.366;8.530;2023-03-01T15:43:43;8.60;99.90
5802;DHT22;2927;49.366;8.530;2023-03-01T15:46:18;8.90;99.90
5802;DHT22;2927;49.366;8.530;2023-03-01T15:48:50;9.20;99.90
5802;DHT22;2927;49.366;8.530;2023-03-01T15:51:17;9.30;99.90
5802;DHT22;2927;49.366;8.530;2023-03-01T15:53:50;9.30;99.90
5802;DHT22;2927;49.366;8.530;2023-03-01T15:56:16;9.30;99.90
5802;DHT22;2927;49.366;8.530;2023-03-01T15:58:42;9.10;99.90
5802;DHT22;2927;49.366;8.530;2023-03-01T16:01:12;9.20;99.90
5802;DHT22;2927;49.366;8.530;2023-03-01T16:03:38;9.20;99.90
5802;DHT22;2927;49.366;8.530;2023-03-01T16:06:04;9.00;99.90
5802;DHT22;2927;49.366;8.530;2023-03-01T16:08:29;8.80;99.90
5802;DHT22;2927;49.366;8.530;2023-03-01T16:10:55;8.90;99.90
5802;DHT22;2927;49.366;8.530;2023-03-01T16:13:20;8.70;99.90
5802;DHT22;2927;49.366;8.530;2023-03-01T16:15:47;8.80;99.90
5802;DHT22;2927;49.366;8.530;2023-03-01T16:18:13;8.80;99.90
5802;DHT22;2927;49.366;8.530;2023-03-01T16:20:38;8.90;99.90
5802;DHT22;2927;49.366;8.530;2023-03-01T16:23:07;8.80;99.90
5802;DHT22;2927;49.366;8.530;2023-03-01T16:25:34;8.70;99.90
5802;DHT22;2927;49.366;8.530;2023-03-01T16:28:00;8.60;99.90
5802;DHT22;2927;49.366;8.530;2023-03-01T16:30:30;8.50;99.90
5802;DHT22;2927;49.366;8.530;2023-03-01T16:32:55;8.40;99.90
5802;DHT22;2927;49.366;8.530;2023-03-01T16:35:21;8.40;99.90
5802;DHT22;2927;49.366;8.530;2023-03-01T16:37:48;8.30;99.90
5802;DHT22;2927;49.366;8.530;2023-03-01T16:40:27;8.10;99.90
5802;DHT22;2927;49.366;8.530;2023-03-01T16:42:54;8.00;99.90
5802;DHT22;2927;49.366;8.530;2023-03-01T16:45:24;7.80;99.90
5802;DHT22;2927;49.366;8.530;2023-03-01T16:47:51;7.70;99.90
5802;DHT22;2927;49.366;8.530;2023-03-01T16:50:16;7.70;99.90
5802;DHT22;2927;49.366;8.530;2023-03-01T16:52:42;7.60;99.90
5802;DHT22;2927;49.366;8.530;2023-03-01T16:55:08;7.60;99.90
5802;DHT22;2927;49.366;8.530;2023-03-01T16:57:35;7.50;99.90
5802;DHT22;2927;49.366;8.530;2023-03-01T17:00:01;7.40;99.90
5802;DHT22;2927;49.366;8.530;2023-03-01T17:02:37;7.30;99.90
5802;DHT22;2927;49.366;8.530;2023-03-01T17:05:03;7.30;99.90
5802;DHT22;2927;49.366;8.530;2023-03-01T17:07:32;7.30;99.90
5802;DHT22;2927;49.366;8.530;2023-03-01T17:10:06;7.20;99.90
5802;DHT22;2927;49.366;8.530;2023-03-01T17:12:33;7.10;99.90
5802;DHT22;2927;49.366;8.530;2023-03-01T17:14:59;7.00;99.90
5802;DHT22;2927;49.366;8.530;2023-03-01T17:17:25;7.00;99.90
5802;DHT22;2927;49.366;8.530;2023-03-01T17:19:51;7.00;99.90
5802;DHT22;2927;49.366;8.530;2023-03-01T17:22:17;6.90;99.90
5802;DHT22;2927;49.366;8.530;2023-03-01T17:24:43;6.80;99.90
5802;DHT22;2927;49.366;8.530;2023-03-01T17:27:11;6.80;99.90
5802;DHT22;2927;49.366;8.530;2023-03-01T17:29:38;6.70;99.90
5802;DHT22;2927;49.366;8.530;2023-03-01T17:32:04;6.70;99.90
5802;DHT22;2927;49.366;8.530;2023-03-01T17:34:31;6.60;99.90
5802;DHT22;2927;49.366;8.530;2023-03-01T17:36:57;6.50;99.90
5802;DHT22;2927;49.366;8.530;2023-03-01T17:39:22;6.50;99.90
5802;DHT22;2927;49.366;8.530;2023-03-01T17:41:52;6.40;99.90
5802;DHT22;2927;49.366;8.530;2023-03-01T17:44:18;6.30;99.90
5802;DHT22;2927;49.366;8.530;2023-03-01T17:46:44;6.30;99.90
5802;DHT22;2927;49.366;8.530;2023-03-01T17:49:10;6.30;99.90
5802;DHT22;2927;49.366;8.530;2023-03-01T17:51:35;6.20;99.90
5802;DHT22;2927;49.366;8.530;2023-03-01T17:54:01;6.10;99.90
5802;DHT22;2927;49.366;8.530;2023-03-01T17:56:26;6.10;99.90
5802;DHT22;2927;49.366;8.530;2023-03-01T17:58:53;6.10;99.90
5802;DHT22;2927;49.366;8.530;2023-03-01T18:01:21;6.10;99.90
5802;DHT22;2927;49.366;8.530;2023-03-01T18:03:50;6.00;99.90
5802;DHT22;2927;49.366;8.530;2023-03-01T18:06:21;6.00;99.90
5802;DHT22;2927;49.366;8.530;2023-03-01T18:08:47;5.90;99.90
5802;DHT22;2927;49.366;8.530;2023-03-01T18:11:17;5.90;99.90
5802;DHT22;2927;49.366;8.530;2023-03-01T18:13:45;5.80;99.90
5802;DHT22;2927;49.366;8.530;2023-03-01T18:16:15;5.80;99.90
5802;DHT22;2927;49.366;8.530;2023-03-01T18:18:42;5.80;99.90
5802;DHT22;2927;49.366;8.530;2023-03-01T18:21:10;5.80;99.90
5802;DHT22;2927;49.366;8.530;2023-03-01T18:23:36;5.80;99.90
5802;DHT22;2927;49.366;8.530;2023-03-01T18:26:11;5.80;99.90